Time;durP1;ratioP1;P1;durP2;ratioP2;P2;SDS_P1;SDS_P2;PMS_P1;PMS_P2;Temp;Humidity;BMP_temperature;BMP_pressure;BME280_temperature;BME280_humidity;BME280_pressure;Samples;Min_cycle;Max_cycle;Signal;HPM_P1;HPM_P2
2022/01/04 00:01:59;;;;;;;4.43;2.40;;;;;;;8.75;44.50;93813.59;5009330;28;20854;-75
2022/01/04 00:04:24;;;;;;;3.45;2.65;;;;;;;8.75;44.76;93802.97;5011506;28;20041;-75
2022/01/04 00:06:50;;;;;;;4.18;2.88;;;;;;;8.62;44.52;93777.28;5024534;28;20043;-75
2022/01/04 00:09:15;;;;;;;5.13;2.83;;;;;;;8.48;44.57;93745.53;5021037;28;20527;-75
2022/01/04 00:14:10;;;;;;;3.85;2.50;;;;;;;8.58;44.74;93767.28;5022038;28;20079;-75
2022/01/04 00:16:35;;;;;;;3.03;2.05;;;;;;;8.65;44.55;93771.41;5028383;28;20108;-75
2022/01/04 00:19:00;;;;;;;5.97;2.70;;;;;;;8.81;44.59;93776.03;5025183;28;20390;-75
2022/01/04 00:21:26;;;;;;;3.65;2.83;;;;;;;8.73;44.57;93773.31;5022018;28;20041;-75
2022/01/04 00:23:51;;;;;;;3.72;2.55;;;;;;;8.80;44.24;93789.59;5029700;28;20069;-74
2022/01/04 00:26:19;;;;;;;3.45;2.33;;;;;;;8.67;44.51;93782.47;5020785;28;20365;-75
2022/01/04 00:28:45;;;;;;;4.28;2.75;;;;;;;8.73;44.46;93794.53;5027639;28;20025;-75
2022/01/04 00:31:10;;;;;;;3.47;2.60;;;;;;;8.65;44.42;93789.97;5007244;28;20049;-75
2022/01/04 00:33:37;;;;;;;4.60;3.20;;;;;;;8.69;44.55;93807.63;5024901;28;20040;-75
2022/01/04 00:36:03;;;;;;;6.28;3.45;;;;;;;8.66;44.41;93800.25;5018174;28;20047;-75
2022/01/04 00:38:28;;;;;;;5.18;3.03;;;;;;;8.80;43.88;93805.50;5026255;28;20033;-75
2022/01/04 00:40:53;;;;;;;5.35;3.40;;;;;;;8.80;44.28;93830.16;5024816;28;20041;-75
2022/01/04 00:43:19;;;;;;;6.78;3.15;;;;;;;8.64;44.34;93834.25;5020167;28;20549;-75
2022/01/04 00:45:45;;;;;;;6.78;2.63;;;;;;;8.61;44.55;93834.06;5026293;28;21192;-74
2022/01/04 00:50:43;;;;;;;3.90;2.45;;;;;;;8.52;44.63;93816.22;5025674;28;20139;-75
2022/01/04 00:53:09;;;;;;;8.25;2.38;;;;;;;8.55;44.58;93828.09;5025999;28;20123;-75
2022/01/04 00:55:34;;;;;;;5.22;3.30;;;;;;;8.57;44.64;93833.84;5027476;28;20029;-75
2022/01/04 00:58:01;;;;;;;4.47;3.15;;;;;;;8.34;44.93;93811.84;5028414;28;20029;-75
2022/01/04 01:00:27;;;;;;;6.93;4.50;;;;;;;8.40;45.13;93818.63;5019085;28;20084;-75
2022/01/04 01:02:53;;;;;;;5.18;3.95;;;;;;;8.44;45.10;93814.28;5023358;28;20131;-75
2022/01/04 01:05:22;;;;;;;7.57;4.38;;;;;;;8.46;44.96;93812.09;5024832;28;21682;-75
2022/01/04 01:07:47;;;;;;;4.05;3.58;;;;;;;8.51;44.88;93798.72;5026279;28;20589;-75
2022/01/04 01:12:40;;;;;;;8.05;3.17;;;;;;;8.31;45.14;93778.00;5017295;28;20111;-75
2022/01/04 01:15:07;;;;;;;6.07;2.80;;;;;;;8.39;45.09;93795.84;5021099;28;20500;-75
2022/01/04 01:17:32;;;;;;;3.97;2.20;;;;;;;8.38;44.98;93793.47;5020191;28;20041;-75
2022/01/04 01:19:59;;;;;;;4.68;2.65;;;;;;;8.30;45.03;93808.22;5002424;28;20067;-75
2022/01/04 01:22:25;;;;;;;5.40;3.45;;;;;;;8.16;45.35;93775.69;5015794;28;20044;-76
2022/01/04 01:24:52;;;;;;;3.65;2.40;;;;;;;8.33;45.32;93802.31;5005356;28;20586;-74
2022/01/04 01:27:18;;;;;;;3.83;2.50;;;;;;;8.28;45.27;93791.06;5023491;28;20044;-75
2022/01/04 01:29:43;;;;;;;4.05;2.30;;;;;;;8.28;45.22;93794.50;5019864;28;20558;-75
2022/01/04 01:32:09;;;;;;;3.40;2.50;;;;;;;8.26;45.33;93796.66;5021249;28;20021;-75
2022/01/04 01:34:35;;;;;;;3.85;2.28;;;;;;;8.08;45.54;93773.72;5019892;28;20024;-75
2022/01/04 01:37:00;;;;;;;4.80;2.80;;;;;;;8.31;45.04;93759.47;5018580;28;20401;-75
2022/01/04 01:39:26;;;;;;;5.28;2.97;;;;;;;8.06;45.54;93776.69;5009855;28;20524;-75
2022/01/04 01:41:51;;;;;;;3.47;2.20;;;;;;;8.18;45.77;93789.41;5010485;28;20048;-74
2022/01/04 01:44:17;;;;;;;2.53;2.25;;;;;;;8.28;45.30;93789.19;4985175;28;20936;-74
2022/01/04 01:46:44;;;;;;;3.58;1.85;;;;;;;8.11;45.24;93786.41;5007808;28;20062;-75
2022/01/04 01:49:09;;;;;;;3.20;2.10;;;;;;;7.88;46.15;93800.63;5005467;28;20609;-74
2022/01/04 01:51:34;;;;;;;3.55;1.98;;;;;;;7.95;45.86;93812.41;5023561;28;20759;-75
2022/01/04 01:54:00;;;;;;;5.38;2.42;;;;;;;7.79;46.25;93799.75;5021577;28;20112;-75
2022/01/04 01:56:26;;;;;;;3.38;2.33;;;;;;;7.88;45.75;93779.44;5023034;28;20053;-75
2022/01/04 01:58:53;;;;;;;3.60;2.28;;;;;;;7.75;46.33;93785.56;5020903;28;20421;-75
2022/01/04 02:01:19;;;;;;;6.30;3.53;;;;;;;7.65;46.50;93775.91;5021616;28;20033;-74
2022/01/04 02:03:45;;;;;;;3.70;2.80;;;;;;;7.75;46.30;93790.84;5022247;28;20034;-74
2022/01/04 02:06:10;;;;;;;6.65;4.05;;;;;;;7.84;46.02;93799.66;5017809;28;20037;-74
2022/01/04 02:08:36;;;;;;;9.32;3.90;;;;;;;7.76;46.34;93808.31;5020716;28;20892;-75
2022/01/04 02:11:02;;;;;;;4.53;3.65;;;;;;;7.82;46.21;93802.63;5022192;28;20025;-75
2022/01/04 02:13:28;;;;;;;5.13;3.65;;;;;;;7.62;46.28;93790.53;5019626;28;20174;-75
2022/01/04 02:15:57;;;;;;;8.30;3.67;;;;;;;7.60;46.45;93778.66;5026171;28;20560;-75
2022/01/04 02:18:22;;;;;;;10.60;5.45;;;;;;;7.64;46.66;93791.00;5020248;28;20072;-76
2022/01/04 02:20:48;;;;;;;10.50;5.78;;;;;;;7.47;46.49;93772.31;5021348;28;20121;-75
2022/01/04 02:23:14;;;;;;;8.55;5.38;;;;;;;7.49;46.32;93767.50;5020702;28;20028;-75
2022/01/04 02:25:39;;;;;;;10.23;5.13;;;;;;;7.50;46.28;93774.34;5019336;28;20044;-75
2022/01/04 02:28:05;;;;;;;7.85;4.60;;;;;;;7.57;46.31;93780.06;5023158;28;20041;-75
2022/01/04 02:30:31;;;;;;;5.85;3.72;;;;;;;7.58;46.09;93773.66;5019367;28;20037;-75
2022/01/04 02:32:57;;;;;;;5.65;2.55;;;;;;;7.59;46.15;93799.06;5018445;28;20504;-75
2022/01/04 02:35:30;;;;;;;5.40;3.63;;;;;;;7.45;46.09;93761.22;5025507;28;20041;-76
2022/01/04 02:37:57;;;;;;;4.93;2.72;;;;;;;7.59;46.28;93793.75;5001811;28;20035;-75
2022/01/04 02:40:23;;;;;;;3.25;2.20;;;;;;;7.35;46.08;93750.81;5024802;28;20041;-75
2022/01/04 02:42:49;;;;;;;2.80;2.30;;;;;;;7.57;46.23;93780.06;5014236;28;20045;-76
2022/01/04 02:45:14;;;;;;;2.47;2.03;;;;;;;7.59;46.33;93785.03;5022127;28;20044;-75
2022/01/04 02:47:40;;;;;;;3.75;2.13;;;;;;;7.55;46.43;93784.84;5019496;28;20038;-75
2022/01/04 02:50:07;;;;;;;2.45;1.73;;;;;;;7.46;46.47;93769.94;5017278;28;20491;-75
2022/01/04 02:52:34;;;;;;;3.08;2.25;;;;;;;7.52;46.39;93777.50;5024961;28;20029;-76
2022/01/04 02:55:01;;;;;;;3.90;2.35;;;;;;;7.45;46.40;93781.59;5019228;28;20563;-75
2022/01/04 02:57:26;;;;;;;5.53;2.25;;;;;;;7.34;46.17;93759.09;5023453;28;20041;-75
2022/01/04 02:59:52;;;;;;;2.67;2.00;;;;;;;7.49;46.40;93772.78;5023395;28;20072;-75
2022/01/04 03:02:22;;;;;;;3.72;2.35;;;;;;;7.46;46.13;93752.22;5016549;28;20392;-76
2022/01/04 03:04:47;;;;;;;5.13;2.35;;;;;;;7.34;46.19;93743.22;5000338;28;20036;-75
2022/01/04 03:07:13;;;;;;;5.97;2.72;;;;;;;7.32;46.57;93742.69;5007635;28;20224;-75
2022/01/04 03:09:38;;;;;;;8.43;3.40;;;;;;;7.24;46.63;93744.16;5018933;28;20041;-76
2022/01/04 03:12:05;;;;;;;5.03;2.92;;;;;;;7.25;46.67;93743.88;5019368;28;20059;-76
2022/01/04 03:14:30;;;;;;;3.53;2.13;;;;;;;7.18;46.66;93737.41;5026253;28;20037;-75
2022/01/04 03:16:56;;;;;;;3.72;2.38;;;;;;;7.15;46.64;93740.63;5019094;28;20473;-75
2022/01/04 03:19:21;;;;;;;2.95;2.15;;;;;;;7.34;46.85;93759.84;5028161;28;20068;-75
2022/01/04 03:21:47;;;;;;;3.28;2.13;;;;;;;7.22;46.57;93748.97;5007101;28;20045;-75
2022/01/04 03:24:14;;;;;;;5.53;2.90;;;;;;;7.20;46.49;93743.19;5026514;28;20631;-75
2022/01/04 03:26:40;;;;;;;12.55;4.85;;;;;;;7.37;46.56;93764.56;5016958;28;20033;-75
2022/01/04 03:29:08;;;;;;;5.07;2.60;;;;;;;7.40;46.31;93763.19;5008621;28;20028;-75
2022/01/04 03:31:34;;;;;;;3.58;2.33;;;;;;;7.34;46.61;93762.47;5016640;28;20033;-75
2022/01/04 03:34:00;;;;;;;4.32;2.40;;;;;;;7.27;46.53;93770.81;5025824;28;20222;-75
2022/01/04 03:36:26;;;;;;;9.82;2.17;;;;;;;7.23;46.73;93775.13;5024332;28;20079;-75
2022/01/04 03:38:52;;;;;;;2.67;2.20;;;;;;;7.27;46.64;93772.69;5024353;28;20140;-75
2022/01/04 03:41:19;;;;;;;2.25;1.73;;;;;;;7.27;46.46;93775.34;4997418;28;20138;-75
2022/01/04 03:43:45;;;;;;;2.08;1.73;;;;;;;7.12;46.70;93762.38;5013103;28;20036;-75
2022/01/04 03:46:18;;;;;;;5.22;1.75;;;;;;;7.10;46.67;93777.75;5012091;28;20048;-75
2022/01/04 03:48:44;;;;;;;2.50;1.90;;;;;;;7.14;46.82;93781.41;5017684;28;20037;-76
2022/01/04 03:51:10;;;;;;;2.30;1.52;;;;;;;7.21;46.80;93781.78;5022069;28;20061;-76
2022/01/04 03:53:36;;;;;;;2.75;1.80;;;;;;;7.32;46.23;93783.19;5017957;28;20112;-75
2022/01/04 03:56:03;;;;;;;2.58;1.75;;;;;;;6.93;46.86;93759.03;5020708;28;20668;-75
2022/01/04 03:58:29;;;;;;;3.72;1.80;;;;;;;7.17;46.70;93783.44;5026168;28;20041;-76
2022/01/04 04:00:54;;;;;;;4.15;2.35;;;;;;;7.13;46.76;93774.53;5020659;28;20069;-76
2022/01/04 04:03:20;;;;;;;2.25;1.77;;;;;;;7.13;46.67;93774.53;5022793;28;20052;-75
2022/01/04 04:05:50;;;;;;;1.73;1.40;;;;;;;7.10;46.73;93760.00;5021770;28;20076;-75
2022/01/04 04:08:16;;;;;;;2.85;2.55;;;;;;;6.95;46.67;93741.78;5022187;28;20083;-75
2022/01/04 04:10:41;;;;;;;4.25;1.70;;;;;;;7.19;45.93;93762.78;5025262;28;20109;-75
2022/01/04 04:13:07;;;;;;;3.55;2.40;;;;;;;7.08;46.69;93772.75;5023867;28;20045;-76
2022/01/04 04:15:33;;;;;;;5.28;2.78;;;;;;;7.07;46.77;93767.75;5023696;28;20044;-75
2022/01/04 04:17:58;;;;;;;4.95;2.20;;;;;;;6.98;46.58;93753.66;5020682;28;20041;-75
2022/01/04 04:20:24;;;;;;;3.05;2.38;;;;;;;6.94;46.76;93750.81;5021526;28;20060;-76
2022/01/04 04:22:50;;;;;;;3.13;2.20;;;;;;;6.98;46.89;93762.38;5021847;28;20112;-75
2022/01/04 04:25:15;;;;;;;7.18;2.58;;;;;;;7.02;46.86;93770.50;5019488;28;20045;-75
2022/01/04 04:27:41;;;;;;;2.75;2.13;;;;;;;6.99;46.79;93773.72;5021651;28;20515;-75
2022/01/04 04:30:09;;;;;;;9.02;3.47;;;;;;;6.79;46.85;93757.13;5018554;28;20037;-76
2022/01/04 04:32:35;;;;;;;5.88;4.40;;;;;;;6.93;47.02;93785.47;5023943;28;20414;-76
2022/01/04 04:35:06;;;;;;;9.52;4.38;;;;;;;6.71;47.01;93757.78;5025323;28;20479;-75
2022/01/04 04:37:32;;;;;;;9.35;4.90;;;;;;;6.70;47.43;93777.34;5023738;28;20037;-75
2022/01/04 04:39:57;;;;;;;10.10;5.35;;;;;;;6.69;47.53;93786.38;5021062;28;20052;-75
2022/01/04 04:42:23;;;;;;;9.63;5.70;;;;;;;6.67;47.55;93793.81;5006951;28;20037;-75
2022/01/04 04:44:48;;;;;;;9.23;6.00;;;;;;;6.38;48.04;93770.22;5024565;28;20098;-75
2022/01/04 04:47:13;;;;;;;10.35;6.72;;;;;;;6.68;47.85;93803.31;5020725;28;20033;-74
2022/01/04 04:49:39;;;;;;;12.90;7.82;;;;;;;6.66;47.83;93805.44;5011219;28;20024;-75
2022/01/04 04:52:05;;;;;;;13.90;7.35;;;;;;;6.67;47.89;93801.72;5026315;28;20135;-75
2022/01/04 04:54:30;;;;;;;13.15;7.80;;;;;;;6.59;48.13;93806.88;5025695;28;20090;-75
2022/01/04 04:56:56;;;;;;;13.65;7.90;;;;;;;6.46;48.27;93774.03;5025782;28;20412;-75
2022/01/04 04:59:21;;;;;;;10.77;6.22;;;;;;;6.49;48.22;93788.56;5020259;28;20049;-74
2022/01/04 05:01:47;;;;;;;10.82;5.32;;;;;;;6.59;47.90;93786.53;5023223;28;20027;-75
2022/01/04 05:04:12;;;;;;;7.80;5.30;;;;;;;6.59;47.55;93781.25;5023496;28;20029;-75
2022/01/04 05:06:37;;;;;;;8.05;5.28;;;;;;;6.70;47.70;93806.44;5022301;28;20064;-75
2022/01/04 05:09:03;;;;;;;8.48;5.55;;;;;;;6.64;47.96;93798.88;5021517;28;20041;-75
2022/01/04 05:11:29;;;;;;;8.65;5.32;;;;;;;6.59;47.94;93794.47;5021525;28;20151;-75
2022/01/04 05:13:55;;;;;;;10.98;5.88;;;;;;;6.58;48.21;93798.19;5005739;28;20024;-76
2022/01/04 05:16:20;;;;;;;10.15;5.82;;;;;;;6.66;48.13;93802.78;5023637;28;20037;-75
2022/01/04 05:18:46;;;;;;;8.55;6.38;;;;;;;6.46;47.87;93770.63;5026760;28;20106;-75
2022/01/04 05:21:11;;;;;;;10.73;5.75;;;;;;;6.61;48.00;93794.16;5022796;28;20564;-74
2022/01/04 05:23:36;;;;;;;6.72;4.43;;;;;;;6.42;47.71;93762.47;5019220;28;20214;-75
2022/01/04 05:26:02;;;;;;;11.57;4.93;;;;;;;6.58;47.65;93782.31;5005351;28;20033;-75
2022/01/04 05:28:28;;;;;;;7.65;4.50;;;;;;;6.66;47.46;93789.59;5020955;28;20112;-74
2022/01/04 05:30:53;;;;;;;8.70;3.35;;;;;;;6.64;47.24;93783.03;5019854;28;20408;-75
2022/01/04 05:33:18;;;;;;;4.88;3.22;;;;;;;6.49;46.91;93777.97;5002965;28;20052;-74
2022/01/04 05:35:44;;;;;;;4.03;2.85;;;;;;;6.55;46.64;93790.84;4992147;28;20526;-75
2022/01/04 05:38:10;;;;;;;3.13;2.20;;;;;;;6.62;46.80;93791.25;5003541;28;20028;-75
2022/01/04 05:40:35;;;;;;;4.10;2.15;;;;;;;6.62;46.68;93787.81;5007265;28;20659;-75
2022/01/04 05:43:01;;;;;;;2.88;2.13;;;;;;;6.59;46.71;93791.81;5004333;28;20110;-74
2022/01/04 05:45:28;;;;;;;5.55;3.20;;;;;;;6.41;46.86;93768.84;5018912;28;20185;-76
2022/01/04 05:47:54;;;;;;;8.30;3.67;;;;;;;6.56;46.99;93781.81;5018659;28;20102;-74
2022/01/04 05:50:20;;;;;;;8.98;4.07;;;;;;;6.56;47.11;93784.44;5019985;28;20029;-75
2022/01/04 05:52:45;;;;;;;4.40;3.83;;;;;;;6.54;47.33;93783.19;5023266;28;20082;-75
2022/01/04 05:55:11;;;;;;;6.78;3.55;;;;;;;6.37;47.66;93773.91;5017977;28;20112;-74
2022/01/04 05:57:36;;;;;;;9.13;5.00;;;;;;;6.38;47.71;93774.69;5018345;28;20748;-74
2022/01/04 06:00:03;;;;;;;9.00;4.95;;;;;;;6.38;48.03;93772.84;5019388;28;20447;-74
2022/01/04 06:02:29;;;;;;;7.32;4.80;;;;;;;6.31;48.02;93769.00;5017017;28;20715;-75
2022/01/04 06:04:54;;;;;;;6.50;3.97;;;;;;;6.31;48.15;93769.00;5020973;28;20576;-75
2022/01/04 06:07:19;;;;;;;5.03;3.63;;;;;;;6.32;48.00;93781.91;5019368;28;20037;-75
2022/01/04 06:09:48;;;;;;;3.83;2.40;;;;;;;6.44;47.58;93778.84;5015419;28;20620;-75
2022/01/04 06:14:52;;;;;;;2.85;1.95;;;;;;;6.51;47.17;93776.59;5020675;28;20389;-74
2022/01/04 06:17:19;;;;;;;3.97;2.45;;;;;;;6.45;47.76;93787.56;5024777;28;20095;-75
2022/01/04 06:19:44;;;;;;;2.35;1.90;;;;;;;6.46;47.95;93781.97;5020337;28;20067;-75
2022/01/04 06:22:10;;;;;;;4.15;2.40;;;;;;;6.58;47.34;93779.69;5023304;28;20131;-75
2022/01/04 06:24:36;;;;;;;3.50;2.25;;;;;;;6.45;47.65;93764.56;5017040;28;21074;-75
2022/01/04 06:27:05;;;;;;;3.15;2.20;;;;;;;6.33;47.74;93751.78;5009863;28;20421;-75
2022/01/04 06:29:31;;;;;;;4.72;2.10;;;;;;;6.35;47.98;93759.44;5019296;28;20033;-75
2022/01/04 06:31:56;;;;;;;5.38;2.42;;;;;;;6.33;48.31;93762.34;5013645;28;20362;-74
2022/01/04 06:34:22;;;;;;;2.97;2.30;;;;;;;6.47;48.03;93759.75;5021063;28;20037;-74
2022/01/04 06:36:48;;;;;;;3.55;1.98;;;;;;;6.32;48.16;93738.88;5013017;28;20033;-75
2022/01/04 06:39:13;;;;;;;5.57;2.50;;;;;;;6.58;47.64;93758.53;5005519;28;20909;-75
2022/01/04 06:41:38;;;;;;;3.20;2.03;;;;;;;6.54;47.56;93736.41;5019052;28;20033;-74
2022/01/04 06:44:04;;;;;;;4.13;1.88;;;;;;;6.71;47.57;93757.78;5018600;28;20473;-74
2022/01/04 06:46:29;;;;;;;11.40;5.72;;;;;;;6.28;48.03;93774.84;5023697;28;20059;-75
2022/01/04 06:48:55;;;;;;;9.25;5.50;;;;;;;6.51;48.29;93768.69;5002838;28;20043;-74
2022/01/04 06:51:20;;;;;;;6.75;3.70;;;;;;;6.62;48.04;93764.81;5018561;28;20155;-75
2022/01/04 06:53:46;;;;;;;12.82;8.23;;;;;;;6.55;47.87;93731.91;5021724;28;20037;-75
2022/01/04 06:56:11;;;;;;;35.80;16.55;;;;;;;6.74;47.86;93764.38;5012905;28;20174;-75
2022/01/04 06:58:37;;;;;;;22.35;10.85;;;;;;;6.80;47.96;93756.03;5019247;28;20037;-75
2022/01/04 07:01:02;;;;;;;17.50;9.65;;;;;;;6.82;47.69;93751.25;5022063;28;20160;-76
2022/01/04 07:03:27;;;;;;;18.60;10.77;;;;;;;7.01;47.21;93768.91;5018808;28;20547;-75
2022/01/04 07:05:53;;;;;;;13.52;8.32;;;;;;;7.03;47.63;93769.41;5022018;28;20055;-75
2022/01/04 07:08:18;;;;;;;7.18;5.80;;;;;;;7.34;47.13;93781.00;5009556;28;20505;-75
2022/01/04 07:10:44;;;;;;;17.40;8.80;;;;;;;7.20;47.21;93781.00;5024453;28;20033;-75
2022/01/04 07:13:09;;;;;;;17.80;10.93;;;;;;;7.31;47.42;93786.88;5013960;28;20710;-75
2022/01/04 07:15:36;;;;;;;14.15;9.30;;;;;;;7.42;47.28;93788.28;5023485;28;20401;-75
2022/01/04 07:18:02;;;;;;;17.67;9.13;;;;;;;7.36;47.45;93783.38;5019537;28;20556;-74
2022/01/04 07:20:27;;;;;;;19.48;9.85;;;;;;;7.30;47.25;93761.50;5021574;28;20051;-75
2022/01/04 07:22:53;;;;;;;16.05;9.15;;;;;;;7.41;47.42;93778.78;5020175;28;20033;-75
2022/01/04 07:25:18;;;;;;;18.67;10.48;;;;;;;7.20;47.64;93759.06;5005721;28;20079;-75
2022/01/04 07:27:44;;;;;;;16.48;9.23;;;;;;;7.10;48.03;93764.53;5007314;28;20037;-75
2022/01/04 07:30:10;;;;;;;25.15;10.65;;;;;;;6.56;49.34;93773.88;5006966;28;20045;-74
2022/01/04 07:32:35;;;;;;;24.98;12.55;;;;;;;6.48;50.14;93761.34;5015565;28;20112;-75
2022/01/04 07:35:01;;;;;;;24.42;13.23;;;;;;;6.88;49.41;93773.13;5020789;28;20043;-75
2022/01/04 07:37:26;;;;;;;30.08;13.75;;;;;;;6.79;49.50;93757.13;5024089;28;20025;-75
2022/01/04 07:39:52;;;;;;;29.70;14.10;;;;;;;6.51;50.66;93773.19;5020215;28;20076;-74
2022/01/04 07:42:22;;;;;;;27.73;16.63;;;;;;;6.39;51.33;93776.28;5019726;28;20669;-75
2022/01/04 07:44:48;;;;;;;28.02;17.08;;;;;;;6.97;49.83;93762.66;5018818;28;20034;-75
2022/01/04 07:47:13;;;;;;;35.78;19.02;;;;;;;7.18;49.57;93777.88;5018339;28;20329;-75
2022/01/04 07:49:39;;;;;;;29.60;16.23;;;;;;;7.29;48.97;93767.88;5018327;28;20025;-75
2022/01/04 07:52:04;;;;;;;23.85;15.35;;;;;;;6.64;50.47;93759.25;5017688;28;20082;-74
2022/01/04 07:54:36;;;;;;;24.80;16.80;;;;;;;6.95;50.19;93767.44;5018844;28;20030;-75
2022/01/04 07:57:01;;;;;;;27.25;15.57;;;;;;;7.06;49.62;93763.53;5019426;28;20037;-75
2022/01/04 07:59:29;;;;;;;27.30;16.75;;;;;;;6.92;49.63;93760.09;5017032;28;20639;-74
2022/01/04 08:01:55;;;;;;;30.38;17.70;;;;;;;6.83;50.22;93775.84;5009276;28;20032;-75
2022/01/04 08:04:20;;;;;;;29.45;15.52;;;;;;;6.13;51.85;93756.56;5018457;28;20468;-75
2022/01/04 08:06:46;;;;;;;31.80;17.25;;;;;;;6.86;50.56;93776.03;5019980;28;20033;-75
2022/01/04 08:09:12;;;;;;;27.75;16.75;;;;;;;7.14;49.90;93773.47;5015148;28;20048;-75
2022/01/04 08:11:37;;;;;;;33.55;17.92;;;;;;;6.94;50.19;93769.31;4995789;28;20098;-75
2022/01/04 08:14:02;;;;;;;29.63;17.35;;;;;;;6.88;50.13;93753.81;5026948;28;20032;-75
2022/01/04 08:16:31;;;;;;;35.60;17.48;;;;;;;7.09;50.00;93757.69;5024891;28;20032;-75
2022/01/04 08:18:57;;;;;;;31.40;19.55;;;;;;;7.24;49.92;93765.31;5026147;28;20052;-75
2022/01/04 08:21:22;;;;;;;31.70;18.67;;;;;;;7.05;50.26;93756.69;5011296;28;20041;-75
2022/01/04 08:23:48;;;;;;;31.75;19.90;;;;;;;7.37;49.25;93735.47;5023706;28;20144;-75
2022/01/04 08:26:13;;;;;;;43.03;20.30;;;;;;;7.44;49.22;93748.28;5019999;28;20539;-75
2022/01/04 08:28:39;;;;;;;43.95;20.45;;;;;;;7.26;50.08;93763.19;5025721;28;20025;-75
2022/01/04 08:31:05;;;;;;;40.38;21.92;;;;;;;7.61;49.50;93765.16;5020144;28;20700;-75
2022/01/04 08:33:30;;;;;;;47.25;22.10;;;;;;;7.30;49.97;93738.47;5026511;28;20584;-75
2022/01/04 08:35:56;;;;;;;36.50;21.20;;;;;;;7.69;49.41;93772.38;5023941;28;20170;-75
2022/01/04 08:38:21;;;;;;;44.42;24.98;;;;;;;7.58;49.21;93759.66;5010989;28;20039;-74
2022/01/04 08:40:46;;;;;;;44.50;26.20;;;;;;;6.88;51.45;93751.97;5022010;28;20033;-74
2022/01/04 08:43:12;;;;;;;49.17;26.02;;;;;;;7.08;50.47;93735.75;5016330;28;20915;-74
2022/01/04 08:45:37;;;;;;;42.30;28.23;;;;;;;7.42;50.02;93735.34;5026625;28;20037;-74
2022/01/04 08:48:04;;;;;;;48.35;27.00;;;;;;;6.80;51.03;93740.19;5021340;28;20033;-73
2022/01/04 08:50:29;;;;;;;46.92;28.02;;;;;;;7.12;51.24;93749.16;5024573;28;20045;-74
2022/01/04 08:52:56;;;;;;;54.63;29.58;;;;;;;6.96;51.48;93747.84;5028306;28;20520;-74
2022/01/04 08:55:23;;;;;;;52.30;30.77;;;;;;;7.36;50.44;93735.75;5019247;28;20517;-75
2022/01/04 08:57:48;;;;;;;59.83;32.25;;;;;;;5.94;53.30;93751.28;5015954;28;20410;-74
2022/01/04 09:00:15;;;;;;;51.55;32.03;;;;;;;6.11;53.46;93748.94;5025678;28;20248;-74
2022/01/04 09:02:40;;;;;;;56.58;34.60;;;;;;;5.75;54.65;93766.31;5021474;28;20044;-74
2022/01/04 09:05:07;;;;;;;54.42;30.98;;;;;;;6.32;53.64;93767.91;5027198;28;20333;-74
2022/01/04 09:07:37;;;;;;;53.90;30.65;;;;;;;6.81;52.23;93747.03;5020225;28;20465;-73
2022/01/04 09:10:04;;;;;;;49.42;30.15;;;;;;;7.09;51.13;93733.88;5006553;28;20128;-74
2022/01/04 09:12:41;;;;;;;54.72;29.25;;;;;;;7.38;50.68;93749.47;5021165;28;20041;-75
2022/01/04 09:15:31;;;;;;;56.45;28.55;;;;;;;7.35;50.36;93744.75;5016407;28;21317;-74
2022/01/04 09:20:42;;;;;;;;;;;;;;;7.82;49.01;93735.66;5002160;28;20259;-74
2022/01/04 09:23:07;;;;;;;43.42;23.38;;;;;;;7.69;49.04;93702.78;5001940;28;19920;-76
2022/01/04 09:25:33;;;;;;;38.58;24.20;;;;;;;7.69;49.08;93719.44;5006185;28;20469;-75
2022/01/04 09:27:58;;;;;;;35.10;22.90;;;;;;;7.88;49.25;93681.47;5003087;28;20041;-75
2022/01/04 09:30:24;;;;;;;44.55;25.17;;;;;;;7.67;49.31;93705.75;5016278;28;20714;-74
2022/01/04 09:32:49;;;;;;;39.45;25.65;;;;;;;7.03;50.44;93675.00;5024097;28;20123;-74
2022/01/04 09:35:15;;;;;;;46.25;23.65;;;;;;;7.52;50.11;93684.88;5023334;28;20045;-75
2022/01/04 09:37:41;;;;;;;41.45;21.40;;;;;;;6.77;51.27;93687.91;5005885;28;20029;-75
2022/01/04 09:40:08;;;;;;;30.10;19.85;;;;;;;7.13;50.82;93647.59;5021752;28;20397;-74
2022/01/04 09:42:35;;;;;;;35.55;19.90;;;;;;;7.80;49.55;93676.91;5019100;28;20033;-74
2022/01/04 09:45:00;;;;;;;36.05;20.67;;;;;;;6.69;51.49;93658.75;5022674;28;20261;-75
2022/01/04 09:47:26;;;;;;;39.95;22.00;;;;;;;6.98;51.10;93653.16;5018169;28;20040;-75
2022/01/04 09:49:51;;;;;;;30.85;19.55;;;;;;;7.46;50.40;93646.38;5022639;28;20029;-73
2022/01/04 09:52:21;;;;;;;36.90;20.73;;;;;;;7.55;50.20;93665.75;5024511;28;20123;-74
2022/01/04 09:54:51;;;;;;;34.03;20.75;;;;;;;7.91;49.57;93654.41;5007733;28;20137;-74
2022/01/04 09:57:18;;;;;;;36.17;20.52;;;;;;;8.15;48.86;93639.81;5016641;28;20185;-73
2022/01/04 09:59:43;;;;;;;31.17;20.15;;;;;;;7.66;48.99;93619.47;5010731;28;20509;-75
2022/01/04 10:02:19;;;;;;;33.90;21.98;;;;;;;7.81;49.67;93642.19;5023556;28;20033;-74
2022/01/04 10:04:45;;;;;;;39.38;22.15;;;;;;;8.06;48.80;93611.69;5015079;28;20166;-75
2022/01/04 10:07:11;;;;;;;45.65;21.90;;;;;;;7.01;50.47;93612.91;5024051;28;20041;-74
2022/01/04 10:09:38;;;;;;;33.30;19.65;;;;;;;7.73;49.90;93622.50;5019922;28;20387;-73
2022/01/04 10:12:05;;;;;;;36.75;21.58;;;;;;;6.70;52.10;93607.44;5019779;28;20041;-75
2022/01/04 10:14:33;;;;;;;37.47;20.35;;;;;;;6.21;53.63;93626.56;5026233;28;20049;-74
2022/01/04 10:17:06;;;;;;;37.40;20.55;;;;;;;6.29;53.56;93617.97;5010856;28;20041;-73
2022/01/04 10:19:42;;;;;;;33.95;20.05;;;;;;;6.16;54.11;93606.31;4996940;28;20049;-73
2022/01/04 10:22:19;;;;;;;34.92;20.92;;;;;;;6.52;53.65;93609.09;5000173;28;20033;-75
2022/01/04 10:25:09;;;;;;;38.97;21.63;;;;;;;6.40;53.75;93611.44;5010417;28;20372;-72
2022/01/04 10:27:37;;;;;;;38.05;23.13;;;;;;;6.20;53.94;93603.84;5016210;28;20037;-73
2022/01/04 10:30:11;;;;;;;41.40;24.35;;;;;;;6.04;54.78;93602.50;5016318;28;20404;-74
2022/01/04 10:32:52;;;;;;;36.17;21.80;;;;;;;6.15;54.48;93596.78;5005369;28;20041;-73
2022/01/04 10:35:26;;;;;;;36.60;21.80;;;;;;;6.09;54.41;93589.22;5006312;28;20025;-74
2022/01/04 10:37:52;;;;;;;40.20;23.55;;;;;;;5.86;54.42;93562.69;5016947;28;20029;-73
2022/01/04 10:40:21;;;;;;;36.83;21.48;;;;;;;5.93;54.54;93586.84;4997183;28;20037;-74
2022/01/04 10:42:47;;;;;;;35.35;21.52;;;;;;;5.46;55.00;93515.84;5003615;28;20037;-74
2022/01/04 10:45:30;;;;;;;33.22;19.77;;;;;;;6.34;54.08;93575.63;5004583;28;20048;-74
2022/01/04 10:48:13;;;;;;;27.73;18.23;;;;;;;6.51;53.35;93578.44;5005780;28;20041;-72
2022/01/04 10:50:40;;;;;;;33.38;19.67;;;;;;;6.10;53.49;93556.47;4993205;28;20056;-74
2022/01/04 10:53:12;;;;;;;30.63;18.38;;;;;;;6.60;53.09;93576.72;5017783;28;20435;-75
2022/01/04 10:55:44;;;;;;;26.67;14.68;;;;;;;6.81;51.83;93575.22;5003298;28;20411;-73
2022/01/04 10:58:24;;;;;;;22.33;13.10;;;;;;;6.52;51.84;93573.94;4991379;28;20044;-74
2022/01/04 11:00:55;;;;;;;19.75;11.32;;;;;;;6.80;51.01;93565.72;5011459;28;20053;-73
2022/01/04 11:03:27;;;;;;;24.08;13.80;;;;;;;6.97;50.68;93540.56;5001920;28;20899;-74
2022/01/04 11:06:07;;;;;;;17.20;11.30;;;;;;;7.32;50.29;93555.66;5016234;28;20044;-75
2022/01/04 11:08:33;;;;;;;17.27;10.88;;;;;;;7.13;49.83;93552.38;5018246;28;20573;-74
2022/01/04 11:10:59;;;;;;;18.23;11.43;;;;;;;7.23;49.95;93552.16;5016635;28;20025;-75
2022/01/04 11:13:25;;;;;;;15.60;9.30;;;;;;;7.54;49.34;93546.94;5011308;28;20525;-74
2022/01/04 11:15:51;;;;;;;22.73;11.23;;;;;;;7.59;49.30;93555.56;5004466;28;20500;-74
2022/01/04 11:18:18;;;;;;;21.38;12.20;;;;;;;7.77;48.83;93555.72;5004733;28;20041;-74
2022/01/04 11:20:45;;;;;;;18.95;12.07;;;;;;;7.53;49.01;93550.72;4984578;28;20360;-74
2022/01/04 11:23:10;;;;;;;19.77;11.95;;;;;;;7.64;48.60;93525.53;5015887;28;20031;-74
2022/01/04 11:25:36;;;;;;;25.05;13.18;;;;;;;7.76;48.76;93527.69;5019638;28;20036;-74
2022/01/04 11:28:03;;;;;;;23.67;13.45;;;;;;;7.83;48.45;93528.81;5018245;28;20073;-73
2022/01/04 11:30:40;;;;;;;20.55;13.95;;;;;;;7.58;48.33;93542.66;5016836;28;20124;-74
2022/01/04 11:33:15;;;;;;;23.60;13.48;;;;;;;7.66;48.89;93512.81;5004878;28;20041;-72
2022/01/04 11:35:41;;;;;;;25.30;14.88;;;;;;;7.44;48.81;93518.06;5018094;28;20037;-74
2022/01/04 11:38:06;;;;;;;26.23;14.38;;;;;;;8.15;48.17;93533.84;5010593;28;20948;-74
2022/01/04 11:40:36;;;;;;;26.80;15.63;;;;;;;8.01;48.19;93524.41;5017054;28;20083;-74
2022/01/04 11:43:03;;;;;;;20.45;13.25;;;;;;;7.53;48.48;93525.00;5012458;28;20048;-74
2022/01/04 11:45:44;;;;;;;28.23;12.65;;;;;;;7.53;48.59;93506.47;5013553;28;20064;-74